Time;durP1;ratioP1;P1;durP2;ratioP2;P2;SDS_P1;SDS_P2;PMS_P1;PMS_P2;Temp;Humidity;BMP_temperature;BMP_pressure;BME280_temperature;BME280_humidity;BME280_pressure;Samples;Min_cycle;Max_cycle;Signal;HPM_P1;HPM_P2
2023/10/13 00:01:22;;;;;;;18.13;7.45;;;;;;;;;;5072424;28;20207;-82
2023/10/13 00:03:49;;;;;;;15.43;7.18;;;;;;;;;;5071979;28;20234;-82
2023/10/13 00:06:18;;;;;;;16.38;7.78;;;;;;;;;;5071831;28;20286;-82
2023/10/13 00:08:45;;;;;;;15.68;8.02;;;;;;;;;;5071794;28;20196;-81
2023/10/13 00:11:17;;;;;;;14.90;7.47;;;;;;;;;;5072344;28;20196;-81
2023/10/13 00:13:50;;;;;;;15.73;7.53;;;;;;;;;;5071980;28;20970;-80
2023/10/13 00:16:21;;;;;;;16.45;7.88;;;;;;;;;;5071595;28;20319;-82
2023/10/13 00:18:48;;;;;;;16.48;7.20;;;;;;;;;;5071650;28;20195;-81
2023/10/13 00:21:20;;;;;;;17.38;7.32;;;;;;;;;;5072337;28;20242;-81
2023/10/13 00:23:53;;;;;;;13.40;7.30;;;;;;;;;;5071522;28;20199;-82
2023/10/13 00:26:24;;;;;;;14.88;6.80;;;;;;;;;;5071815;28;20230;-81
2023/10/13 00:28:58;;;;;;;13.25;6.82;;;;;;;;;;5071699;28;20199;-81
2023/10/13 00:31:28;;;;;;;14.02;7.20;;;;;;;;;;5071646;28;20753;-81
2023/10/13 00:34:01;;;;;;;11.45;7.15;;;;;;;;;;5072146;28;20195;-82
2023/10/13 00:36:28;;;;;;;18.90;7.13;;;;;;;;;;5071149;28;20202;-81
2023/10/13 00:38:56;;;;;;;18.02;7.07;;;;;;;;;;5071520;28;20218;-81
2023/10/13 00:41:50;;;;;;;14.95;6.93;;;;;;;;;;5071771;28;20203;-81
2023/10/13 00:44:16;;;;;;;16.83;6.85;;;;;;;;;;5071602;28;20195;-82
2023/10/13 00:46:44;;;;;;;12.32;6.82;;;;;;;;;;5071733;28;20199;-82
2023/10/13 00:49:15;;;;;;;13.25;7.18;;;;;;;;;;5071396;28;20199;-80
2023/10/13 00:51:46;;;;;;;15.65;7.00;;;;;;;;;;5071278;28;20210;-81
2023/10/13 00:54:16;;;;;;;17.20;6.20;;;;;;;;;;5071491;28;20203;-80
2023/10/13 00:56:46;;;;;;;16.90;7.40;;;;;;;;;;5071251;28;20679;-82
2023/10/13 00:59:16;;;;;;;12.40;6.63;;;;;;;;;;5071149;28;20206;-82
2023/10/13 01:01:43;;;;;;;13.98;6.40;;;;;;;;;;5071383;28;20261;-81
2023/10/13 01:04:12;;;;;;;14.05;6.13;;;;;;;;;;5070772;28;20242;-81
2023/10/13 01:06:38;;;;;;;12.23;5.72;;;;;;;;;;5070790;28;20655;-81
2023/10/13 01:09:13;;;;;;;12.15;5.63;;;;;;;;;;5070862;28;20222;-82
2023/10/13 01:11:39;;;;;;;12.77;5.72;;;;;;;;;;5071237;28;20287;-81
2023/10/13 01:14:07;;;;;;;13.43;5.60;;;;;;;;;;5071076;28;20683;-81
2023/10/13 01:16:35;;;;;;;11.93;5.50;;;;;;;;;;5070982;28;20223;-81
2023/10/13 01:19:05;;;;;;;16.27;6.07;;;;;;;;;;5070996;28;20298;-81
2023/10/13 01:21:33;;;;;;;8.45;4.93;;;;;;;;;;5061982;28;20204;-80
2023/10/13 01:24:07;;;;;;;9.50;5.03;;;;;;;;;;5067936;28;20195;-82
2023/10/13 01:26:38;;;;;;;10.52;5.10;;;;;;;;;;5071344;28;20194;-82
2023/10/13 01:29:14;;;;;;;12.68;5.13;;;;;;;;;;5071018;28;20256;-81
2023/10/13 01:31:45;;;;;;;10.65;5.10;;;;;;;;;;5071332;28;20226;-82
2023/10/13 01:34:14;;;;;;;11.48;5.18;;;;;;;;;;5071096;28;20244;-82
2023/10/13 01:36:40;;;;;;;14.68;5.90;;;;;;;;;;5071067;28;20214;-82
2023/10/13 01:39:16;;;;;;;13.25;5.38;;;;;;;;;;5070717;28;20903;-82
2023/10/13 01:41:42;;;;;;;10.40;5.43;;;;;;;;;;5071237;28;20198;-82
2023/10/13 01:44:12;;;;;;;16.05;5.80;;;;;;;;;;5070952;28;20286;-82
2023/10/13 01:46:38;;;;;;;9.52;5.43;;;;;;;;;;5071234;28;20202;-82
2023/10/13 01:49:07;;;;;;;10.20;5.50;;;;;;;;;;5070170;28;20223;-81
2023/10/13 01:51:33;;;;;;;12.63;5.63;;;;;;;;;;5071004;28;20196;-81
2023/10/13 01:54:02;;;;;;;14.43;5.57;;;;;;;;;;5071140;28;20203;-80
2023/10/13 01:56:31;;;;;;;13.88;5.88;;;;;;;;;;5070855;28;20235;-81
2023/10/13 01:58:58;;;;;;;10.32;5.47;;;;;;;;;;5070596;28;20207;-81
2023/10/13 02:01:27;;;;;;;10.80;5.57;;;;;;;;;;5070974;28;20746;-82
2023/10/13 02:04:02;;;;;;;11.85;6.00;;;;;;;;;;5070497;28;20635;-81
2023/10/13 02:06:32;;;;;;;11.18;5.55;;;;;;;;;;5070858;28;20195;-81
2023/10/13 02:09:10;;;;;;;11.98;5.70;;;;;;;;;;5070651;28;20734;-81
2023/10/13 02:11:38;;;;;;;13.85;5.65;;;;;;;;;;5070816;28;20619;-82
2023/10/13 02:14:05;;;;;;;15.55;5.97;;;;;;;;;;5070994;28;20206;-81
2023/10/13 02:16:31;;;;;;;11.38;5.75;;;;;;;;;;5072214;28;20247;-81
2023/10/13 02:19:03;;;;;;;12.07;6.32;;;;;;;;;;5073632;28;20206;-82
2023/10/13 02:21:31;;;;;;;10.40;6.20;;;;;;;;;;5074543;28;20223;-82
2023/10/13 02:24:03;;;;;;;11.60;5.68;;;;;;;;;;5074160;28;20289;-81
2023/10/13 02:26:30;;;;;;;11.73;6.47;;;;;;;;;;5074361;28;20570;-81
2023/10/13 02:29:02;;;;;;;9.85;5.78;;;;;;;;;;5073825;28;20302;-82
2023/10/13 02:31:28;;;;;;;10.63;6.50;;;;;;;;;;5073655;28;20202;-82
2023/10/13 02:33:56;;;;;;;9.50;6.50;;;;;;;;;;5073552;28;20289;-81
2023/10/13 02:36:23;;;;;;;12.85;6.45;;;;;;;;;;5072572;28;20317;-81
2023/10/13 02:38:51;;;;;;;11.20;6.40;;;;;;;;;;5073786;28;20199;-82
2023/10/13 02:41:25;;;;;;;11.10;6.43;;;;;;;;;;5073939;28;20201;-82
2023/10/13 02:43:52;;;;;;;12.27;6.80;;;;;;;;;;5073814;28;20302;-82
2023/10/13 02:46:21;;;;;;;12.38;7.20;;;;;;;;;;5073943;28;20672;-81
2023/10/13 02:48:52;;;;;;;11.35;6.70;;;;;;;;;;5073363;28;20203;-81
2023/10/13 02:51:22;;;;;;;14.57;6.90;;;;;;;;;;5073441;28;20274;-81
2023/10/13 02:53:49;;;;;;;13.25;7.10;;;;;;;;;;5073700;28;20295;-81
2023/10/13 02:56:20;;;;;;;12.98;7.05;;;;;;;;;;5073631;28;20230;-82
2023/10/13 02:58:53;;;;;;;14.70;6.80;;;;;;;;;;5073751;28;20195;-82
2023/10/13 03:01:26;;;;;;;10.50;6.68;;;;;;;;;;5073128;28;20620;-81
2023/10/13 03:03:54;;;;;;;11.25;6.70;;;;;;;;;;5073899;28;20195;-82
2023/10/13 03:06:24;;;;;;;13.75;7.88;;;;;;;;;;5073358;28;20202;-80
2023/10/13 03:08:50;;;;;;;13.70;7.22;;;;;;;;;;5073347;28;20244;-81
2023/10/13 03:11:21;;;;;;;12.93;7.10;;;;;;;;;;5073225;28;20218;-81
2023/10/13 03:13:47;;;;;;;17.35;7.13;;;;;;;;;;5073749;28;20685;-81
2023/10/13 03:16:19;;;;;;;12.38;7.10;;;;;;;;;;5072588;28;20261;-80
2023/10/13 03:18:53;;;;;;;12.35;6.88;;;;;;;;;;5073267;28;20248;-81
2023/10/13 03:21:29;;;;;;;12.57;7.28;;;;;;;;;;5073233;28;20281;-80
2023/10/13 03:23:56;;;;;;;10.38;7.07;;;;;;;;;;5073132;28;20191;-80
2023/10/13 03:26:23;;;;;;;11.35;6.95;;;;;;;;;;5072508;28;20245;-81
2023/10/13 03:28:52;;;;;;;13.02;7.28;;;;;;;;;;5072102;28;20231;-81
2023/10/13 03:31:27;;;;;;;11.00;6.97;;;;;;;;;;5072735;28;20209;-81
2023/10/13 03:33:59;;;;;;;12.77;6.95;;;;;;;;;;5072825;28;20198;-81
2023/10/13 03:39:11;;;;;;;12.68;7.20;;;;;;;;;;5061935;28;20199;-81
2023/10/13 03:41:39;;;;;;;11.10;6.88;;;;;;;;;;5073306;28;20248;-80
2023/10/13 03:44:13;;;;;;;13.70;6.85;;;;;;;;;;5072369;28;20701;-81
2023/10/13 03:46:42;;;;;;;13.00;6.75;;;;;;;;;;5072316;28;20210;-81
2023/10/13 03:49:12;;;;;;;10.20;6.78;;;;;;;;;;5072359;28;20233;-81
2023/10/13 03:51:40;;;;;;;10.82;6.97;;;;;;;;;;5072103;28;20221;-81
2023/10/13 03:54:08;;;;;;;11.50;6.15;;;;;;;;;;5072723;28;20223;-80
2023/10/13 03:56:39;;;;;;;11.35;6.88;;;;;;;;;;5071855;28;20227;-82
2023/10/13 03:59:09;;;;;;;12.35;6.40;;;;;;;;;;5072508;28;20203;-79
2023/10/13 04:01:45;;;;;;;14.93;7.10;;;;;;;;;;5072210;28;20195;-81
2023/10/13 04:04:15;;;;;;;10.15;5.95;;;;;;;;;;5072007;28;20281;-81
2023/10/13 04:07:13;;;;;;;12.70;6.70;;;;;;;;;;5072056;28;20683;-82
2023/10/13 04:10:19;;;;;;;12.50;6.32;;;;;;;;;;5072294;28;20226;-82
2023/10/13 04:15:36;;;;;;;12.15;6.18;;;;;;;;;;5072468;28;20219;-82
2023/10/13 04:18:13;;;;;;;12.85;6.80;;;;;;;;;;5072170;28;20202;-81
2023/10/13 04:20:46;;;;;;;11.05;5.55;;;;;;;;;;5071828;28;20233;-81
2023/10/13 04:23:19;;;;;;;13.60;6.47;;;;;;;;;;5072619;28;20236;-81
2023/10/13 04:28:37;;;;;;;14.57;6.25;;;;;;;;;;5058049;28;20671;-82
2023/10/13 04:31:11;;;;;;;10.93;7.00;;;;;;;;;;5071655;28;20199;-82
2023/10/13 04:33:51;;;;;;;13.20;6.65;;;;;;;;;;5071785;28;20206;-81
2023/10/13 04:36:36;;;;;;;10.35;5.70;;;;;;;;;;5071041;28;20226;-81
2023/10/13 04:39:10;;;;;;;9.32;5.70;;;;;;;;;;5071366;28;20280;-80
2023/10/13 04:41:39;;;;;;;10.30;5.45;;;;;;;;;;5071256;28;20195;-81
2023/10/13 04:44:47;;;;;;;11.75;5.90;;;;;;;;;;5071415;28;20279;-81
2023/10/13 04:47:09;;;;;;;12.00;6.20;;;;;;;;;;5071258;28;20203;-81
2023/10/13 04:49:49;;;;;;;10.50;6.60;;;;;;;;;;5071522;28;20262;-81
2023/10/13 04:52:44;;;;;;;13.82;6.30;;;;;;;;;;5071972;28;20263;-81
2023/10/13 04:55:32;;;;;;;9.82;5.60;;;;;;;;;;5071371;28;20199;-81
2023/10/13 04:58:10;;;;;;;12.35;6.05;;;;;;;;;;5070970;28;20602;-82
2023/10/13 05:01:16;;;;;;;9.95;6.32;;;;;;;;;;5071646;28;20202;-82
2023/10/13 05:04:08;;;;;;;10.13;6.18;;;;;;;;;;5071092;28;20565;-81
2023/10/13 05:45:24;;;;;;;12.80;6.53;;;;;;;;;;5070677;28;20583;-80
2023/10/13 05:48:02;;;;;;;12.10;6.40;;;;;;;;;;5070812;28;20206;-81
2023/10/13 06:28:57;;;;;;;12.82;5.78;;;;;;;;;;5009586;28;20215;-79
2023/10/13 06:31:26;;;;;;;12.00;6.53;;;;;;;;;;5011562;28;20774;-80
2023/10/13 06:33:55;;;;;;;11.63;5.70;;;;;;;;;;5011357;28;20732;-78
2023/10/13 06:36:22;;;;;;;12.60;6.35;;;;;;;;;;5011176;28;20225;-79
2023/10/13 06:39:20;;;;;;;14.38;5.90;;;;;;;;;;5010227;28;20218;-79
2023/10/13 06:41:43;;;;;;;14.45;6.70;;;;;;;;;;5011001;28;20205;-80
2023/10/13 06:44:16;;;;;;;9.70;6.35;;;;;;;;;;5010828;28;20197;-79
2023/10/13 06:46:44;;;;;;;12.30;6.22;;;;;;;;;;5010445;28;20292;-78
2023/10/13 06:49:14;;;;;;;9.93;5.82;;;;;;;;;;5010787;28;20196;-80
2023/10/13 06:51:41;;;;;;;12.15;6.68;;;;;;;;;;5010029;28;20209;-80
2023/10/13 06:54:19;;;;;;;10.25;6.10;;;;;;;;;;5009318;28;20204;-79
2023/10/13 06:56:47;;;;;;;9.52;5.88;;;;;;;;;;5009384;28;20263;-80
2023/10/13 06:59:14;;;;;;;9.10;6.32;;;;;;;;;;5008922;28;20689;-80
2023/10/13 07:01:42;;;;;;;9.27;6.38;;;;;;;;;;5063885;28;20278;-80
2023/10/13 07:04:14;;;;;;;11.60;6.45;;;;;;;;;;5070690;28;20222;-81
2023/10/13 07:06:48;;;;;;;9.68;6.25;;;;;;;;;;5072086;28;20669;-79
2023/10/13 07:09:39;;;;;;;10.43;6.20;;;;;;;;;;5072193;28;20202;-79
2023/10/13 07:12:06;;;;;;;11.65;6.25;;;;;;;;;;5072414;28;20237;-80
2023/10/13 07:14:34;;;;;;;9.38;6.03;;;;;;;;;;5072540;28;20206;-79
2023/10/13 07:17:02;;;;;;;8.73;6.55;;;;;;;;;;5072653;28;20234;-80
2023/10/13 07:19:31;;;;;;;13.65;6.55;;;;;;;;;;5072575;28;20203;-81
2023/10/13 07:22:02;;;;;;;17.00;7.25;;;;;;;;;;5072719;28;20237;-81
2023/10/13 07:24:31;;;;;;;12.48;6.60;;;;;;;;;;5072668;28;20263;-81
2023/10/13 07:27:04;;;;;;;9.77;7.00;;;;;;;;;;5072438;28;20195;-81
2023/10/13 07:29:33;;;;;;;12.15;7.15;;;;;;;;;;5071790;28;20256;-81
2023/10/13 07:32:02;;;;;;;12.95;7.18;;;;;;;;;;5061504;28;20242;-80
2023/10/13 07:34:32;;;;;;;14.77;7.45;;;;;;;;;;5055732;28;20206;-80
2023/10/13 07:37:00;;;;;;;14.18;7.30;;;;;;;;;;5071149;28;20841;-81
2023/10/13 07:39:28;;;;;;;13.77;7.40;;;;;;;;;;5072003;28;20202;-81
2023/10/13 07:42:03;;;;;;;12.05;7.45;;;;;;;;;;5070763;28;20199;-80
2023/10/13 07:44:33;;;;;;;11.70;6.90;;;;;;;;;;5076056;28;20230;-79
2023/10/13 07:47:02;;;;;;;12.63;7.18;;;;;;;;;;5081824;28;20195;-80
2023/10/13 07:49:32;;;;;;;13.85;6.82;;;;;;;;;;5084445;28;20237;-79
2023/10/13 07:52:06;;;;;;;10.00;7.00;;;;;;;;;;5091795;28;20229;-79
2023/10/13 07:54:33;;;;;;;10.15;6.78;;;;;;;;;;5063796;28;20202;-79
2023/10/13 07:57:07;;;;;;;13.85;6.80;;;;;;;;;;5070086;28;20234;-79
2023/10/13 07:59:47;;;;;;;14.13;6.78;;;;;;;;;;5071793;28;20290;-81
2023/10/13 08:02:15;;;;;;;11.05;6.60;;;;;;;;;;5071986;28;20663;-80
2023/10/13 08:04:43;;;;;;;10.13;6.60;;;;;;;;;;5070532;28;20215;-80
2023/10/13 08:07:27;;;;;;;12.60;6.57;;;;;;;;;;5069624;28;20226;-81
2023/10/13 08:09:57;;;;;;;10.88;6.80;;;;;;;;;;5070764;28;20803;-80
2023/10/13 08:12:24;;;;;;;13.00;6.85;;;;;;;;;;5066862;28;20713;-80
2023/10/13 08:15:09;;;;;;;13.93;7.13;;;;;;;;;;5067771;28;20794;-79
2023/10/13 08:17:36;;;;;;;13.43;6.63;;;;;;;;;;5070495;28;20250;-79
2023/10/13 08:20:11;;;;;;;14.45;6.43;;;;;;;;;;5068193;28;21711;-79
2023/10/13 08:22:39;;;;;;;11.68;6.78;;;;;;;;;;5066334;28;20286;-80
2023/10/13 08:25:24;;;;;;;10.30;6.60;;;;;;;;;;5070329;28;20192;-80
2023/10/13 08:30:53;;;;;;;11.38;7.45;;;;;;;;;;5107030;27;20688;-79
2023/10/13 08:33:24;;;;;;;16.52;7.40;;;;;;;;;;5096551;28;20200;-80
2023/10/13 08:36:27;;;;;;;15.75;7.35;;;;;;;;;;5091231;28;20190;-79
2023/10/13 08:38:55;;;;;;;11.45;6.40;;;;;;;;;;5096724;28;20277;-80
2023/10/13 08:41:31;;;;;;;15.02;6.78;;;;;;;;;;5098539;28;20186;-79
2023/10/13 08:44:09;;;;;;;13.68;7.20;;;;;;;;;;5099091;28;20311;-79
2023/10/13 08:47:03;;;;;;;11.80;6.43;;;;;;;;;;5088912;28;20206;-81
2023/10/13 08:49:32;;;;;;;14.75;7.18;;;;;;;;;;5085420;28;20258;-79
2023/10/13 08:52:37;;;;;;;13.23;6.85;;;;;;;;;;5083410;28;20198;-79
2023/10/13 08:55:12;;;;;;;13.77;6.72;;;;;;;;;;5090136;28;20281;-80
2023/10/13 08:57:40;;;;;;;12.13;7.25;;;;;;;;;;5086070;28;20623;-78
2023/10/13 09:00:55;;;;;;;16.48;6.75;;;;;;;;;;5097135;28;20262;-79
2023/10/13 09:03:40;;;;;;;10.63;5.90;;;;;;;;;;5097617;28;20734;-79
2023/10/13 09:06:08;;;;;;;14.10;6.28;;;;;;;;;;5095784;28;20205;-78
2023/10/13 09:08:44;;;;;;;17.23;6.30;;;;;;;;;;5096943;28;20195;-80
2023/10/13 09:11:12;;;;;;;20.42;7.15;;;;;;;;;;5098319;28;20289;-79
2023/10/13 09:13:44;;;;;;;11.77;6.07;;;;;;;;;;5097313;28;20205;-80
2023/10/13 09:16:17;;;;;;;14.40;5.72;;;;;;;;;;5098339;28;20218;-80
2023/10/13 09:18:50;;;;;;;17.63;6.53;;;;;;;;;;5097775;28;20298;-80
2023/10/13 09:26:39;;;;;;;15.05;5.93;;;;;;;;;;5086552;28;20190;-81
2023/10/13 09:29:14;;;;;;;16.15;6.20;;;;;;;;;;5086712;28;20232;-82
2023/10/13 09:31:44;;;;;;;18.35;6.15;;;;;;;;;;5084384;28;20281;-80
2023/10/13 09:34:20;;;;;;;17.58;5.75;;;;;;;;;;5087393;28;20195;-80
2023/10/13 09:36:49;;;;;;;14.52;5.70;;;;;;;;;;5086634;28;20285;-81
2023/10/13 09:39:29;;;;;;;11.75;5.40;;;;;;;;;;5087460;28;20206;-82
2023/10/13 09:41:56;;;;;;;17.85;5.53;;;;;;;;;;5074621;28;20198;-81
2023/10/13 09:44:23;;;;;;;15.55;5.65;;;;;;;;;;5073912;28;20257;-81
2023/10/13 09:46:49;;;;;;;18.85;5.55;;;;;;;;;;5073326;28;20199;-81
2023/10/13 09:49:33;;;;;;;16.27;5.07;;;;;;;;;;5073464;28;20226;-81
2023/10/13 09:52:01;;;;;;;17.45;5.65;;;;;;;;;;5073242;28;20199;-80
2023/10/13 09:54:33;;;;;;;14.80;5.35;;;;;;;;;;5073825;28;20203;-80
2023/10/13 09:57:03;;;;;;;14.45;5.68;;;;;;;;;;5073032;28;20195;-81
2023/10/13 09:59:35;;;;;;;16.73;5.50;;;;;;;;;;5073146;28;20736;-80
2023/10/13 10:02:08;;;;;;;17.40;5.20;;;;;;;;;;5073305;28;20227;-81
2023/10/13 10:04:50;;;;;;;16.55;5.00;;;;;;;;;;5073377;28;20285;-81
2023/10/13 10:07:27;;;;;;;13.90;4.65;;;;;;;;;;5072962;28;20294;-82
2023/10/13 10:09:56;;;;;;;16.67;4.57;;;;;;;;;;5072997;28;20760;-82
2023/10/13 10:12:33;;;;;;;17.80;5.15;;;;;;;;;;5073689;28;20206;-82
2023/10/13 10:15:13;;;;;;;10.73;4.93;;;;;;;;;;5072941;28;20272;-81
2023/10/13 10:17:40;;;;;;;17.50;5.38;;;;;;;;;;5072415;28;20206;-81
2023/10/13 10:20:19;;;;;;;17.92;5.63;;;;;;;;;;5073167;28;20210;-82
2023/10/13 10:22:58;;;;;;;19.10;5.15;;;;;;;;;;5073045;28;20195;-81
2023/10/13 10:25:34;;;;;;;20.30;5.57;;;;;;;;;;5072411;28;20677;-82
2023/10/13 10:28:05;;;;;;;17.52;5.43;;;;;;;;;;5073168;28;20206;-80
2023/10/13 10:30:33;;;;;;;14.80;5.05;;;;;;;;;;5072280;28;20235;-80
2023/10/13 10:33:06;;;;;;;17.08;5.30;;;;;;;;;;5072880;28;20206;-82
2023/10/13 10:35:35;;;;;;;17.17;5.38;;;;;;;;;;5072266;28;20203;-80
2023/10/13 10:38:15;;;;;;;17.95;5.78;;;;;;;;;;5072807;28;20245;-81
2023/10/13 10:40:56;;;;;;;16.60;5.57;;;;;;;;;;5072270;28;20218;-82
2023/10/13 10:43:26;;;;;;;16.23;5.47;;;;;;;;;;5072594;28;20195;-82
2023/10/13 10:45:59;;;;;;;15.73;5.70;;;;;;;;;;5078063;28;20230;-80
2023/10/13 10:48:31;;;;;;;17.95;7.40;;;;;;;;;;5072719;28;20199;-82
2023/10/13 10:51:06;;;;;;;15.48;7.47;;;;;;;;;;5072584;28;20234;-82
2023/10/13 10:53:43;;;;;;;19.60;8.13;;;;;;;;;;5071275;28;20199;-81
2023/10/13 10:56:20;;;;;;;20.33;8.23;;;;;;;;;;5072234;28;20203;-82
2023/10/13 10:58:48;;;;;;;19.65;9.07;;;;;;;;;;5072170;28;20234;-81
2023/10/13 11:01:20;;;;;;;23.58;9.52;;;;;;;;;;5071808;28;20230;-81
2023/10/13 11:03:57;;;;;;;21.83;9.80;;;;;;;;;;5072295;28;20707;-82
2023/10/13 11:06:26;;;;;;;19.67;10.13;;;;;;;;;;5072056;28;20203;-81
2023/10/13 11:09:03;;;;;;;22.55;10.88;;;;;;;;;;5072480;28;20191;-81
2023/10/13 11:11:35;;;;;;;22.27;11.65;;;;;;;;;;5071986;28;20201;-81
2023/10/13 11:14:17;;;;;;;19.15;10.43;;;;;;;;;;5072131;28;20194;-81
2023/10/13 11:16:50;;;;;;;25.25;11.25;;;;;;;;;;5072079;28;20202;-83
2023/10/13 11:19:25;;;;;;;24.23;11.57;;;;;;;;;;5062862;28;20202;-81
2023/10/13 11:21:54;;;;;;;19.30;10.05;;;;;;;;;;5059543;28;20206;-82
2023/10/13 11:24:22;;;;;;;23.10;11.23;;;;;;;;;;5068137;28;20203;-81
2023/10/13 11:26:51;;;;;;;20.40;10.13;;;;;;;;;;5071382;28;20195;-81
2023/10/13 11:29:20;;;;;;;23.58;9.90;;;;;;;;;;5070976;28;20239;-81
2023/10/13 11:31:58;;;;;;;21.45;10.48;;;;;;;;;;5072126;28;20642;-80
2023/10/13 11:34:30;;;;;;;24.65;11.55;;;;;;;;;;5071806;28;20199;-80
2023/10/13 11:37:28;;;;;;;19.02;10.52;;;;;;;;;;5071635;28;20191;-81
2023/10/13 11:39:47;;;;;;;22.67;11.00;;;;;;;;;;5071630;28;20734;-79
2023/10/13 11:42:17;;;;;;;25.13;11.60;;;;;;;;;;5071588;28;20191;-81
2023/10/13 11:44:44;;;;;;;20.52;11.15;;;;;;;;;;5071354;28;20195;-80
2023/10/13 11:49:58;;;;;;;18.42;9.85;;;;;;;;;;5070600;28;20214;-81
2023/10/13 11:52:30;;;;;;;17.70;9.68;;;;;;;;;;5070170;28;20725;-80
2023/10/13 11:54:57;;;;;;;15.02;9.23;;;;;;;;;;5070779;28;20264;-80
2023/10/13 11:57:24;;;;;;;17.73;9.13;;;;;;;;;;5070947;28;20203;-79
2023/10/13 11:59:56;;;;;;;17.30;8.57;;;;;;;;;;5070654;28;20199;-81
2023/10/13 12:05:17;;;;;;;18.00;8.02;;;;;;;;;;5068075;28;20205;-82
2023/10/13 12:08:03;;;;;;;17.05;7.07;;;;;;;;;;5068186;28;20195;-81
2023/10/13 12:10:49;;;;;;;20.30;8.45;;;;;;;;;;5068833;28;20230;-80
2023/10/13 12:13:17;;;;;;;19.55;9.30;;;;;;;;;;5069912;28;20221;-81
2023/10/13 12:15:52;;;;;;;20.75;9.18;;;;;;;;;;5070148;28;20199;-80
2023/10/13 12:18:22;;;;;;;20.92;10.35;;;;;;;;;;5070405;28;20198;-82
2023/10/13 12:20:50;;;;;;;23.67;11.38;;;;;;;;;;5070190;28;20199;-80
2023/10/13 12:23:20;;;;;;;24.45;11.38;;;;;;;;;;5070582;28;20260;-80
2023/10/13 12:26:00;;;;;;;20.45;12.60;;;;;;;;;;5070249;28;20279;-81
2023/10/13 12:28:28;;;;;;;20.48;12.23;;;;;;;;;;5067798;28;20640;-80
2023/10/13 12:30:58;;;;;;;22.20;11.50;;;;;;;;;;5070106;28;20246;-81
2023/10/13 12:33:27;;;;;;;20.30;11.07;;;;;;;;;;5069997;28;20197;-80
2023/10/13 12:36:30;;;;;;;22.35;11.38;;;;;;;;;;5069859;28;20253;-83
2023/10/13 12:50:07;;;;;;;28.70;10.52;;;;;;;;;;5070597;28;20691;-81
2023/10/13 12:52:34;;;;;;;19.85;9.70;;;;;;;;;;5070752;28;20237;-80
2023/10/13 12:55:13;;;;;;;22.05;10.65;;;;;;;;;;5069706;28;20217;-80
2023/10/13 12:57:46;;;;;;;19.75;10.68;;;;;;;;;;5066179;28;20237;-81
2023/10/13 13:00:32;;;;;;;24.15;11.32;;;;;;;;;;5068390;28;20196;-81
2023/10/13 13:03:00;;;;;;;19.05;10.32;;;;;;;;;;5066168;28;20202;-81
2023/10/13 13:05:31;;;;;;;28.63;11.18;;;;;;;;;;5068865;28;20223;-81
2023/10/13 13:07:58;;;;;;;24.58;10.45;;;;;;;;;;5065115;28;20206;-80
2023/10/13 13:10:35;;;;;;;20.67;10.80;;;;;;;;;;5068454;28;20223;-81
2023/10/13 13:13:04;;;;;;;25.92;12.23;;;;;;;;;;5066816;28;20191;-82
2023/10/13 13:15:31;;;;;;;22.52;11.98;;;;;;;;;;5067515;28;20282;-80
2023/10/13 13:18:09;;;;;;;24.10;13.40;;;;;;;;;;5072179;28;20195;-84
2023/10/13 13:20:39;;;;;;;24.10;13.68;;;;;;;;;;5070736;28;20216;-82
2023/10/13 13:23:07;;;;;;;21.88;12.23;;;;;;;;;;5079905;28;20206;-82
2023/10/13 13:25:42;;;;;;;29.15;13.93;;;;;;;;;;5072607;28;20708;-82
2023/10/13 13:28:10;;;;;;;27.60;15.30;;;;;;;;;;5081402;28;20199;-81
2023/10/13 13:30:37;;;;;;;30.85;16.60;;;;;;;;;;5082991;28;20325;-83
2023/10/13 13:33:10;;;;;;;31.50;16.42;;;;;;;;;;5083192;28;20202;-82
2023/10/13 13:35:38;;;;;;;28.27;16.80;;;;;;;;;;5078587;28;20734;-82
2023/10/13 13:38:16;;;;;;;30.77;17.90;;;;;;;;;;5073357;28;20660;-82
2023/10/13 13:40:48;;;;;;;32.20;19.17;;;;;;;;;;5070852;28;20203;-81
2023/10/13 13:43:31;;;;;;;31.33;19.73;;;;;;;;;;5068760;28;20199;-80
2023/10/13 13:46:00;;;;;;;31.98;20.08;;;;;;;;;;5067671;28;20203;-81
2023/10/13 13:48:28;;;;;;;29.08;20.45;;;;;;;;;;5081193;28;20265;-81
2023/10/13 13:51:03;;;;;;;27.10;19.92;;;;;;;;;;5072590;28;20648;-81
2023/10/13 13:53:34;;;;;;;34.05;23.20;;;;;;;;;;5072793;28;20195;-81
2023/10/13 13:56:03;;;;;;;37.72;23.90;;;;;;;;;;5072916;28;20286;-82
2023/10/13 13:58:30;;;;;;;35.90;24.85;;;;;;;;;;5072750;28;20656;-81
2023/10/13 14:01:11;;;;;;;40.15;25.40;;;;;;;;;;5072752;28;20249;-83
2023/10/13 14:03:44;;;;;;;33.28;24.77;;;;;;;;;;5072480;28;20203;-80
2023/10/13 14:06:17;;;;;;;38.47;25.67;;;;;;;;;;5072983;28;20213;-80
2023/10/13 14:08:48;;;;;;;39.17;25.67;;;;;;;;;;5055666;28;20187;-80
2023/10/13 14:14:11;;;;;;;41.80;26.08;;;;;;;;;;5072456;28;20776;-82
2023/10/13 14:16:44;;;;;;;41.55;26.17;;;;;;;;;;5076397;28;20226;-81
2023/10/13 14:19:12;;;;;;;37.13;24.73;;;;;;;;;;5071859;28;20226;-82
2023/10/13 14:21:39;;;;;;;36.05;26.25;;;;;;;;;;5071769;28;20195;-82
2023/10/13 14:24:13;;;;;;;32.17;23.73;;;;;;;;;;5071346;28;20192;-82
2023/10/13 14:26:43;;;;;;;39.17;25.52;;;;;;;;;;5070085;28;20195;-80
2023/10/13 14:29:14;;;;;;;35.60;24.08;;;;;;;;;;5071512;28;20230;-81
2023/10/13 14:31:43;;;;;;;34.80;23.95;;;;;;;;;;5070736;28;20582;-81
2023/10/13 14:34:11;;;;;;;25.75;19.85;;;;;;;;;;5072406;28;20206;-82
2023/10/13 14:36:38;;;;;;;25.58;17.10;;;;;;;;;;5072403;28;20199;-81
2023/10/13 14:39:09;;;;;;;22.25;14.07;;;;;;;;;;5071693;28;20252;-79
2023/10/13 14:41:37;;;;;;;19.52;10.98;;;;;;;;;;5071652;28;20217;-81
2023/10/13 14:44:07;;;;;;;19.98;10.82;;;;;;;;;;5071636;28;20191;-81
2023/10/13 14:46:36;;;;;;;18.60;10.65;;;;;;;;;;5071544;28;20203;-81
2023/10/13 14:49:03;;;;;;;19.73;10.07;;;;;;;;;;5071858;28;20282;-82
2023/10/13 14:51:31;;;;;;;17.48;9.20;;;;;;;;;;5073342;28;20250;-82
2023/10/13 14:53:59;;;;;;;18.13;8.32;;;;;;;;;;5070407;28;20256;-82
2023/10/13 14:56:27;;;;;;;13.52;7.35;;;;;;;;;;5063883;28;20191;-81
2023/10/13 14:58:55;;;;;;;16.35;6.55;;;;;;;;;;5065577;28;20203;-81
2023/10/13 15:01:26;;;;;;;13.05;6.47;;;;;;;;;;5066204;28;20209;-79
2023/10/13 15:03:55;;;;;;;12.07;5.43;;;;;;;;;;5066642;28;21130;-82
2023/10/13 15:06:24;;;;;;;18.92;6.20;;;;;;;;;;5065545;28;20732;-82
2023/10/13 15:08:54;;;;;;;16.77;5.47;;;;;;;;;;5066617;28;20203;-81
2023/10/13 15:11:22;;;;;;;11.52;4.90;;;;;;;;;;5065804;28;20269;-81
2023/10/13 15:13:50;;;;;;;13.73;4.75;;;;;;;;;;5070688;28;20689;-81
2023/10/13 15:16:18;;;;;;;12.65;4.18;;;;;;;;;;5071555;28;20257;-82
2023/10/13 15:18:47;;;;;;;9.60;3.40;;;;;;;;;;5071786;28;20210;-81
2023/10/13 15:21:21;;;;;;;9.45;3.20;;;;;;;;;;5071390;28;20199;-82
2023/10/13 15:23:48;;;;;;;10.60;2.88;;;;;;;;;;5071448;28;20217;-83
2023/10/13 15:26:16;;;;;;;10.85;2.75;;;;;;;;;;5072385;28;20223;-83
2023/10/13 15:28:48;;;;;;;11.75;2.50;;;;;;;;;;5071192;28;20598;-83
2023/10/13 15:31:36;;;;;;;9.18;2.25;;;;;;;;;;5071621;28;20258;-82
2023/10/13 15:34:06;;;;;;;10.13;2.13;;;;;;;;;;5072181;28;20199;-82
2023/10/13 15:36:34;;;;;;;14.23;2.45;;;;;;;;;;5071879;28;20225;-81
2023/10/13 15:39:02;;;;;;;12.43;2.47;;;;;;;;;;5071545;28;20199;-83
2023/10/13 15:41:29;;;;;;;12.40;2.60;;;;;;;;;;5071959;28;20191;-81
2023/10/13 15:43:57;;;;;;;16.33;2.17;;;;;;;;;;5071580;28;20195;-82
2023/10/13 15:46:24;;;;;;;17.42;2.45;;;;;;;;;;5071554;28;20199;-83
2023/10/13 15:48:52;;;;;;;9.65;1.98;;;;;;;;;;5071585;28;20241;-83
2023/10/13 15:51:21;;;;;;;11.38;2.40;;;;;;;;;;5071171;28;20273;-82
2023/10/13 15:53:48;;;;;;;14.80;2.67;;;;;;;;;;5071850;28;20241;-81
2023/10/13 15:56:16;;;;;;;10.02;2.05;;;;;;;;;;5071660;28;20202;-82
2023/10/13 15:58:45;;;;;;;13.90;3.08;;;;;;;;;;5071384;28;20226;-81
2023/10/13 16:01:12;;;;;;;15.38;2.45;;;;;;;;;;5071848;28;20191;-82
2023/10/13 16:03:43;;;;;;;15.75;2.10;;;;;;;;;;5071680;28;20191;-82
2023/10/13 16:06:10;;;;;;;16.45;2.35;;;;;;;;;;5071195;28;20565;-83
2023/10/13 16:08:42;;;;;;;13.45;2.47;;;;;;;;;;5071478;28;20290;-82
2023/10/13 16:11:13;;;;;;;13.82;2.75;;;;;;;;;;5071892;28;20223;-82
2023/10/13 16:13:40;;;;;;;12.10;1.92;;;;;;;;;;5071495;28;20676;-82
2023/10/13 16:16:08;;;;;;;8.82;2.15;;;;;;;;;;5071405;28;20244;-82
2023/10/13 16:18:35;;;;;;;11.98;1.88;;;;;;;;;;5063624;28;20250;-83
2023/10/13 16:21:03;;;;;;;11.57;2.25;;;;;;;;;;5051575;28;20204;-84
2023/10/13 16:23:31;;;;;;;15.45;2.40;;;;;;;;;;5051515;28;20678;-83
2023/10/13 16:26:02;;;;;;;10.45;2.35;;;;;;;;;;5051636;28;20199;-82
2023/10/13 16:28:34;;;;;;;14.68;2.58;;;;;;;;;;5051280;28;20706;-82
2023/10/13 16:31:01;;;;;;;12.05;2.47;;;;;;;;;;5051725;28;20243;-83
2023/10/13 16:33:29;;;;;;;19.73;2.72;;;;;;;;;;5051083;28;20218;-83
2023/10/13 16:35:56;;;;;;;12.10;2.20;;;;;;;;;;5051696;28;20200;-83
2023/10/13 16:38:24;;;;;;;16.30;2.58;;;;;;;;;;5050385;28;20692;-83
2023/10/13 16:40:53;;;;;;;10.57;2.30;;;;;;;;;;5051776;28;20206;-82
2023/10/13 16:43:22;;;;;;;8.73;2.00;;;;;;;;;;5051723;28;20255;-82
2023/10/13 16:45:49;;;;;;;10.45;2.28;;;;;;;;;;5051515;28;20216;-82
2023/10/13 16:48:17;;;;;;;13.38;2.50;;;;;;;;;;5050926;28;20218;-82
2023/10/13 16:50:43;;;;;;;8.65;2.25;;;;;;;;;;5052280;28;20192;-83